sensor_id;sensor_type;location;lat;lon;timestamp;temperature;humidity
64652;HTU21D;51062;45.120;37.660;2023-04-03T00:01:40;11.40;56.08
64652;HTU21D;51062;45.120;37.660;2023-04-03T00:04:07;11.44;56.01
64652;HTU21D;51062;45.120;37.660;2023-04-03T00:06:33;11.44;56.29
64652;HTU21D;51062;45.120;37.660;2023-04-03T00:09:01;11.43;56.34
64652;HTU21D;51062;45.120;37.660;2023-04-03T00:11:27;11.39;56.36
64652;HTU21D;51062;45.120;37.660;2023-04-03T00:13:53;11.34;56.29
64652;HTU21D;51062;45.120;37.660;2023-04-03T00:16:19;11.27;56.32
64652;HTU21D;51062;45.120;37.660;2023-04-03T00:18:46;11.20;56.33
64652;HTU21D;51062;45.120;37.660;2023-04-03T00:21:12;11.13;56.37
64652;HTU21D;51062;45.120;37.660;2023-04-03T00:23:39;11.08;56.43
64652;HTU21D;51062;45.120;37.660;2023-04-03T00:26:05;11.04;56.47
64652;HTU21D;51062;45.120;37.660;2023-04-03T00:28:31;11.01;56.51
64652;HTU21D;51062;45.120;37.660;2023-04-03T00:30:57;10.97;56.58
64652;HTU21D;51062;45.120;37.660;2023-04-03T00:33:23;10.94;56.61
64652;HTU21D;51062;45.120;37.660;2023-04-03T00:35:50;10.93;56.64
64652;HTU21D;51062;45.120;37.660;2023-04-03T00:38:16;10.92;56.67
64652;HTU21D;51062;45.120;37.660;2023-04-03T00:40:45;10.89;56.71
64652;HTU21D;51062;45.120;37.660;2023-04-03T00:43:20;10.88;56.74
64652;HTU21D;51062;45.120;37.660;2023-04-03T00:45:47;10.86;56.75
64652;HTU21D;51062;45.120;37.660;2023-04-03T00:48:18;10.83;56.71
64652;HTU21D;51062;45.120;37.660;2023-04-03T00:50:46;10.80;56.74
64652;HTU21D;51062;45.120;37.660;2023-04-03T00:53:23;10.78;56.86
64652;HTU21D;51062;45.120;37.660;2023-04-03T00:55:51;10.79;56.91
64652;HTU21D;51062;45.120;37.660;2023-04-03T00:58:22;10.79;56.94
64652;HTU21D;51062;45.120;37.660;2023-04-03T01:00:54;10.80;56.97
64652;HTU21D;51062;45.120;37.660;2023-04-03T01:03:24;10.79;56.99
64652;HTU21D;51062;45.120;37.660;2023-04-03T01:05:52;10.79;57.03
64652;HTU21D;51062;45.120;37.660;2023-04-03T01:08:18;10.77;57.08
64652;HTU21D;51062;45.120;37.660;2023-04-03T01:10:44;10.73;57.17
64652;HTU21D;51062;45.120;37.660;2023-04-03T01:13:19;10.70;57.23
64652;HTU21D;51062;45.120;37.660;2023-04-03T01:15:46;10.68;57.22
64652;HTU21D;51062;45.120;37.660;2023-04-03T01:18:12;10.62;57.26
64652;HTU21D;51062;45.120;37.660;2023-04-03T01:20:59;10.60;57.37
64652;HTU21D;51062;45.120;37.660;2023-04-03T01:26:34;10.57;57.48
64652;HTU21D;51062;45.120;37.660;2023-04-03T01:29:02;10.58;57.56
64652;HTU21D;51062;45.120;37.660;2023-04-03T01:34:02;10.64;57.67
64652;HTU21D;51062;45.120;37.660;2023-04-03T01:36:31;10.67;57.71
64652;HTU21D;51062;45.120;37.660;2023-04-03T01:38:59;10.70;57.76
64652;HTU21D;51062;45.120;37.660;2023-04-03T01:41:26;10.75;57.78
64652;HTU21D;51062;45.120;37.660;2023-04-03T01:43:57;10.79;57.81
64652;HTU21D;51062;45.120;37.660;2023-04-03T01:46:24;10.84;57.92
64652;HTU21D;51062;45.120;37.660;2023-04-03T01:48:50;10.87;58.00
64652;HTU21D;51062;45.120;37.660;2023-04-03T01:51:16;10.94;58.06
64652;HTU21D;51062;45.120;37.660;2023-04-03T01:53:42;10.99;58.13
64652;HTU21D;51062;45.120;37.660;2023-04-03T01:56:08;11.03;58.21
64652;HTU21D;51062;45.120;37.660;2023-04-03T01:58:35;11.09;58.27
64652;HTU21D;51062;45.120;37.660;2023-04-03T02:01:01;11.11;58.31
64652;HTU21D;51062;45.120;37.660;2023-04-03T02:03:29;11.13;58.38
64652;HTU21D;51062;45.120;37.660;2023-04-03T02:05:55;11.15;58.51
64652;HTU21D;51062;45.120;37.660;2023-04-03T02:08:21;11.16;58.64
64652;HTU21D;51062;45.120;37.660;2023-04-03T02:10:48;11.19;58.68
64652;HTU21D;51062;45.120;37.660;2023-04-03T02:13:15;11.20;58.74
64652;HTU21D;51062;45.120;37.660;2023-04-03T02:15:41;11.23;58.80
64652;HTU21D;51062;45.120;37.660;2023-04-03T02:18:07;11.23;58.92
64652;HTU21D;51062;45.120;37.660;2023-04-03T02:20:34;11.25;58.93
64652;HTU21D;51062;45.120;37.660;2023-04-03T02:23:00;11.26;58.99
64652;HTU21D;51062;45.120;37.660;2023-04-03T02:25:27;11.26;59.03
64652;HTU21D;51062;45.120;37.660;2023-04-03T02:27:53;11.27;59.08
64652;HTU21D;51062;45.120;37.660;2023-04-03T02:30:19;11.27;59.09
64652;HTU21D;51062;45.120;37.660;2023-04-03T02:32:45;11.26;59.13
64652;HTU21D;51062;45.120;37.660;2023-04-03T02:35:12;11.26;59.28
64652;HTU21D;51062;45.120;37.660;2023-04-03T02:37:39;11.27;59.33
64652;HTU21D;51062;45.120;37.660;2023-04-03T02:40:07;11.27;59.35
64652;HTU21D;51062;45.120;37.660;2023-04-03T02:42:34;11.27;59.38
64652;HTU21D;51062;45.120;37.660;2023-04-03T02:45:02;11.28;59.43
64652;HTU21D;51062;45.120;37.660;2023-04-03T02:47:29;11.28;59.44
64652;HTU21D;51062;45.120;37.660;2023-04-03T02:49:55;11.26;59.49
64652;HTU21D;51062;45.120;37.660;2023-04-03T02:52:21;11.26;59.52
64652;HTU21D;51062;45.120;37.660;2023-04-03T02:54:48;11.28;59.56
64652;HTU21D;51062;45.120;37.660;2023-04-03T02:57:14;11.26;59.61
64652;HTU21D;51062;45.120;37.660;2023-04-03T02:59:41;11.28;59.68
64652;HTU21D;51062;45.120;37.660;2023-04-03T03:02:08;11.29;59.71
64652;HTU21D;51062;45.120;37.660;2023-04-03T03:04:35;11.30;59.73
64652;HTU21D;51062;45.120;37.660;2023-04-03T03:07:01;11.31;59.80
64652;HTU21D;51062;45.120;37.660;2023-04-03T03:09:28;11.34;59.84
64652;HTU21D;51062;45.120;37.660;2023-04-03T03:11:56;11.37;59.93
64652;HTU21D;51062;45.120;37.660;2023-04-03T03:14:22;11.41;59.98
64652;HTU21D;51062;45.120;37.660;2023-04-03T03:16:48;11.43;60.01
64652;HTU21D;51062;45.120;37.660;2023-04-03T03:19:15;11.47;60.03
64652;HTU21D;51062;45.120;37.660;2023-04-03T03:21:41;11.48;60.06
64652;HTU21D;51062;45.120;37.660;2023-04-03T03:24:07;11.52;60.08
64652;HTU21D;51062;45.120;37.660;2023-04-03T03:26:34;11.54;60.11
64652;HTU21D;51062;45.120;37.660;2023-04-03T03:29:02;11.56;60.14
64652;HTU21D;51062;45.120;37.660;2023-04-03T03:31:29;11.57;60.15
64652;HTU21D;51062;45.120;37.660;2023-04-03T03:33:55;11.58;60.18
64652;HTU21D;51062;45.120;37.660;2023-04-03T03:36:22;11.58;60.22
64652;HTU21D;51062;45.120;37.660;2023-04-03T03:38:48;11.59;60.29
64652;HTU21D;51062;45.120;37.660;2023-04-03T03:41:14;11.61;60.39
64652;HTU21D;51062;45.120;37.660;2023-04-03T03:43:42;11.63;60.47
64652;HTU21D;51062;45.120;37.660;2023-04-03T03:46:09;5.31;60.51
64652;HTU21D;51062;45.120;37.660;2023-04-03T03:48:35;11.69;60.48
64652;HTU21D;51062;45.120;37.660;2023-04-03T03:51:02;11.73;60.52
64652;HTU21D;51062;45.120;37.660;2023-04-03T03:53:32;11.74;60.51
64652;HTU21D;51062;45.120;37.660;2023-04-03T03:56:04;11.75;60.53
64652;HTU21D;51062;45.120;37.660;2023-04-03T03:58:31;11.77;60.54
64652;HTU21D;51062;45.120;37.660;2023-04-03T04:01:05;11.78;60.59
64652;HTU21D;51062;45.120;37.660;2023-04-03T04:03:33;11.81;60.56
64652;HTU21D;51062;45.120;37.660;2023-04-03T04:06:00;11.83;60.57
64652;HTU21D;51062;45.120;37.660;2023-04-03T04:08:27;11.85;60.60
64652;HTU21D;51062;45.120;37.660;2023-04-03T04:10:53;11.88;60.62
64652;HTU21D;51062;45.120;37.660;2023-04-03T04:13:20;11.89;60.59
64652;HTU21D;51062;45.120;37.660;2023-04-03T04:15:46;11.89;60.62
64652;HTU21D;51062;45.120;37.660;2023-04-03T04:18:14;11.90;60.63
64652;HTU21D;51062;45.120;37.660;2023-04-03T04:20:45;11.91;60.64
64652;HTU21D;51062;45.120;37.660;2023-04-03T04:23:11;11.92;60.67
64652;HTU21D;51062;45.120;37.660;2023-04-03T04:25:37;11.94;60.68
64652;HTU21D;51062;45.120;37.660;2023-04-03T04:28:04;11.97;60.72
64652;HTU21D;51062;45.120;37.660;2023-04-03T04:30:30;11.98;60.74
64652;HTU21D;51062;45.120;37.660;2023-04-03T04:32:57;12.00;60.76
64652;HTU21D;51062;45.120;37.660;2023-04-03T04:35:24;12.01;60.80
64652;HTU21D;51062;45.120;37.660;2023-04-03T04:37:52;11.99;60.79
64652;HTU21D;51062;45.120;37.660;2023-04-03T04:40:18;11.99;60.79
64652;HTU21D;51062;45.120;37.660;2023-04-03T04:42:44;11.98;60.84
64652;HTU21D;51062;45.120;37.660;2023-04-03T04:45:11;11.97;60.86
64652;HTU21D;51062;45.120;37.660;2023-04-03T04:47:39;11.94;60.86
64652;HTU21D;51062;45.120;37.660;2023-04-03T04:50:06;11.93;60.88
64652;HTU21D;51062;45.120;37.660;2023-04-03T04:52:32;11.92;60.87
64652;HTU21D;51062;45.120;37.660;2023-04-03T04:54:59;11.90;60.87
64652;HTU21D;51062;45.120;37.660;2023-04-03T04:57:26;11.89;60.89
64652;HTU21D;51062;45.120;37.660;2023-04-03T04:59:52;11.90;60.91
64652;HTU21D;51062;45.120;37.660;2023-04-03T05:02:19;12.00;61.05
64652;HTU21D;51062;45.120;37.660;2023-04-03T05:04:45;12.29;61.05
64652;HTU21D;51062;45.120;37.660;2023-04-03T05:07:18;12.73;60.99
64652;HTU21D;51062;45.120;37.660;2023-04-03T05:09:44;13.48;61.56
64652;HTU21D;51062;45.120;37.660;2023-04-03T05:12:12;14.42;61.10
64652;HTU21D;51062;45.120;37.660;2023-04-03T05:14:44;15.41;60.68
64652;HTU21D;51062;45.120;37.660;2023-04-03T05:17:10;16.30;60.18
64652;HTU21D;51062;45.120;37.660;2023-04-03T05:19:40;17.22;59.71
64652;HTU21D;51062;45.120;37.660;2023-04-03T05:22:08;17.96;59.12
64652;HTU21D;51062;45.120;37.660;2023-04-03T05:24:35;18.61;58.42
64652;HTU21D;51062;45.120;37.660;2023-04-03T05:27:02;19.08;58.02
64652;HTU21D;51062;45.120;37.660;2023-04-03T05:29:29;19.62;57.55
64652;HTU21D;51062;45.120;37.660;2023-04-03T05:31:58;20.11;57.06
64652;HTU21D;51062;45.120;37.660;2023-04-03T05:34:24;20.50;56.54
64652;HTU21D;51062;45.120;37.660;2023-04-03T05:36:53;20.91;56.21
64652;HTU21D;51062;45.120;37.660;2023-04-03T05:39:19;21.29;55.85
64652;HTU21D;51062;45.120;37.660;2023-04-03T05:41:47;21.60;55.14
64652;HTU21D;51062;45.120;37.660;2023-04-03T05:44:13;21.73;54.87
64652;HTU21D;51062;45.120;37.660;2023-04-03T05:46:41;21.81;54.78
64652;HTU21D;51062;45.120;37.660;2023-04-03T05:49:09;21.93;54.39
64652;HTU21D;51062;45.120;37.660;2023-04-03T05:51:37;22.01;54.40
64652;HTU21D;51062;45.120;37.660;2023-04-03T05:54:19;22.23;54.25
64652;HTU21D;51062;45.120;37.660;2023-04-03T05:56:47;22.41;53.72
64652;HTU21D;51062;45.120;37.660;2023-04-03T05:59:13;22.52;53.55
64652;HTU21D;51062;45.120;37.660;2023-04-03T06:01:40;22.61;53.39
64652;HTU21D;51062;45.120;37.660;2023-04-03T06:04:06;22.75;52.85
64652;HTU21D;51062;45.120;37.660;2023-04-03T06:06:51;22.86;52.79
64652;HTU21D;51062;45.120;37.660;2023-04-03T06:09:18;23.10;52.72
64652;HTU21D;51062;45.120;37.660;2023-04-03T06:11:44;23.44;52.33
64652;HTU21D;51062;45.120;37.660;2023-04-03T06:14:11;23.62;52.04
64652;HTU21D;51062;45.120;37.660;2023-04-03T06:16:37;23.87;51.60
64652;HTU21D;51062;45.120;37.660;2023-04-03T06:19:10;24.06;51.20
64652;HTU21D;51062;45.120;37.660;2023-04-03T06:21:41;24.18;51.00
64652;HTU21D;51062;45.120;37.660;2023-04-03T06:24:07;24.29;50.85
64652;HTU21D;51062;45.120;37.660;2023-04-03T06:26:34;24.40;50.62
64652;HTU21D;51062;45.120;37.660;2023-04-03T06:29:00;24.41;50.36
64652;HTU21D;51062;45.120;37.660;2023-04-03T06:31:27;24.26;50.02
64652;HTU21D;51062;45.120;37.660;2023-04-03T06:33:53;23.58;50.11
64652;HTU21D;51062;45.120;37.660;2023-04-03T06:36:20;22.70;50.88
64652;HTU21D;51062;45.120;37.660;2023-04-03T06:38:47;21.94;51.57
64652;HTU21D;51062;45.120;37.660;2023-04-03T06:41:13;21.53;51.95
64652;HTU21D;51062;45.120;37.660;2023-04-03T06:43:39;21.40;51.89
64652;HTU21D;51062;45.120;37.660;2023-04-03T06:46:05;21.27;51.88
64652;HTU21D;51062;45.120;37.660;2023-04-03T06:48:31;21.31;51.84
64652;HTU21D;51062;45.120;37.660;2023-04-03T06:50:57;21.58;51.21
64652;HTU21D;51062;45.120;37.660;2023-04-03T06:53:23;21.36;50.95
64652;HTU21D;51062;45.120;37.660;2023-04-03T06:55:49;21.29;51.43
64652;HTU21D;51062;45.120;37.660;2023-04-03T06:58:16;21.83;51.32
64652;HTU21D;51062;45.120;37.660;2023-04-03T07:00:43;22.54;50.52
64652;HTU21D;51062;45.120;37.660;2023-04-03T07:03:09;23.03;49.93
64652;HTU21D;51062;45.120;37.660;2023-04-03T07:05:35;23.43;49.58
64652;HTU21D;51062;45.120;37.660;2023-04-03T07:08:01;23.77;49.06
64652;HTU21D;51062;45.120;37.660;2023-04-03T07:10:27;23.98;48.88
64652;HTU21D;51062;45.120;37.660;2023-04-03T07:12:53;24.12;48.23
64652;HTU21D;51062;45.120;37.660;2023-04-03T07:15:20;24.09;48.29
64652;HTU21D;51062;45.120;37.660;2023-04-03T07:17:46;24.10;48.31
64652;HTU21D;51062;45.120;37.660;2023-04-03T07:20:12;24.11;48.34
64652;HTU21D;51062;45.120;37.660;2023-04-03T07:22:38;24.21;48.58
64652;HTU21D;51062;45.120;37.660;2023-04-03T07:25:05;24.41;48.13
64652;HTU21D;51062;45.120;37.660;2023-04-03T07:27:33;24.57;47.89
64652;HTU21D;51062;45.120;37.660;2023-04-03T07:29:59;24.68;47.74
64652;HTU21D;51062;45.120;37.660;2023-04-03T07:32:25;24.64;47.61
64652;HTU21D;51062;45.120;37.660;2023-04-03T07:34:51;24.65;47.71
64652;HTU21D;51062;45.120;37.660;2023-04-03T07:37:17;24.69;47.54
64652;HTU21D;51062;45.120;37.660;2023-04-03T07:39:44;24.74;47.42
64652;HTU21D;51062;45.120;37.660;2023-04-03T07:42:10;24.76;47.60
64652;HTU21D;51062;45.120;37.660;2023-04-03T07:44:37;24.87;47.22
64652;HTU21D;51062;45.120;37.660;2023-04-03T07:47:04;24.62;47.10
64652;HTU21D;51062;45.120;37.660;2023-04-03T07:49:30;24.03;47.55
64652;HTU21D;51062;45.120;37.660;2023-04-03T07:51:58;23.61;47.75
64652;HTU21D;51062;45.120;37.660;2023-04-03T07:54:24;23.43;48.37
64652;HTU21D;51062;45.120;37.660;2023-04-03T07:56:51;23.23;48.12
64652;HTU21D;51062;45.120;37.660;2023-04-03T07:59:17;22.95;48.05
64652;HTU21D;51062;45.120;37.660;2023-04-03T08:01:43;22.96;48.34
64652;HTU21D;51062;45.120;37.660;2023-04-03T08:04:09;22.99;47.63
64652;HTU21D;51062;45.120;37.660;2023-04-03T08:06:35;22.95;47.58
64652;HTU21D;51062;45.120;37.660;2023-04-03T08:09:03;22.55;47.28
64652;HTU21D;51062;45.120;37.660;2023-04-03T08:11:29;22.01;47.85
64652;HTU21D;51062;45.120;37.660;2023-04-03T08:13:56;21.37;48.27
64652;HTU21D;51062;45.120;37.660;2023-04-03T08:16:23;20.74;48.93
64652;HTU21D;51062;45.120;37.660;2023-04-03T08:18:53;20.28;49.36
64652;HTU21D;51062;45.120;37.660;2023-04-03T08:21:19;20.01;49.67
64652;HTU21D;51062;45.120;37.660;2023-04-03T08:23:48;19.96;49.74
64652;HTU21D;51062;45.120;37.660;2023-04-03T08:26:17;19.91;49.66
64652;HTU21D;51062;45.120;37.660;2023-04-03T08:28:44;19.79;49.73
64652;HTU21D;51062;45.120;37.660;2023-04-03T08:31:14;19.81;49.78
64652;HTU21D;51062;45.120;37.660;2023-04-03T08:33:41;19.87;49.68
64652;HTU21D;51062;45.120;37.660;2023-04-03T08:36:14;19.94;49.53
64652;HTU21D;51062;45.120;37.660;2023-04-03T08:38:41;19.84;49.51
64652;HTU21D;51062;45.120;37.660;2023-04-03T08:49:32;19.23;50.13
64652;HTU21D;51062;45.120;37.660;2023-04-03T08:52:11;19.23;50.28
64652;HTU21D;51062;45.120;37.660;2023-04-03T08:54:49;19.27;50.22
64652;HTU21D;51062;45.120;37.660;2023-04-03T08:57:17;19.29;50.31
64652;HTU21D;51062;45.120;37.660;2023-04-03T08:59:46;19.39;50.32
64652;HTU21D;51062;45.120;37.660;2023-04-03T09:02:25;19.38;50.08
64652;HTU21D;51062;45.120;37.660;2023-04-03T09:04:54;19.25;50.14
64652;HTU21D;51062;45.120;37.660;2023-04-03T09:07:30;19.18;50.46
64652;HTU21D;51062;45.120;37.660;2023-04-03T09:09:59;19.28;50.56
64652;HTU21D;51062;45.120;37.660;2023-04-03T09:12:29;19.37;50.42
64652;HTU21D;51062;45.120;37.660;2023-04-03T09:20:19;19.51;50.43
64652;HTU21D;51062;45.120;37.660;2023-04-03T09:22:47;19.54;50.43
64652;HTU21D;51062;45.120;37.660;2023-04-03T09:25:18;19.57;50.39
64652;HTU21D;51062;45.120;37.660;2023-04-03T09:27:45;19.50;50.37
64652;HTU21D;51062;45.120;37.660;2023-04-03T09:30:14;19.41;50.53
64652;HTU21D;51062;45.120;37.660;2023-04-03T09:32:41;19.41;50.69
64652;HTU21D;51062;45.120;37.660;2023-04-03T09:35:36;19.46;50.64
64652;HTU21D;51062;45.120;37.660;2023-04-03T09:40:43;19.47;50.54
64652;HTU21D;51062;45.120;37.660;2023-04-03T09:43:30;19.46;50.63
64652;HTU21D;51062;45.120;37.660;2023-04-03T09:46:16;19.45;50.68
64652;HTU21D;51062;45.120;37.660;2023-04-03T09:49:09;19.51;50.71
64652;HTU21D;51062;45.120;37.660;2023-04-03T09:51:37;19.58;50.69
64652;HTU21D;51062;45.120;37.660;2023-04-03T09:54:26;19.48;50.47
64652;HTU21D;51062;45.120;37.660;2023-04-03T09:57:04;19.29;50.56
64652;HTU21D;51062;45.120;37.660;2023-04-03T09:59:32;19.13;50.75
64652;HTU21D;51062;45.120;37.660;2023-04-03T10:02:03;18.98;50.96
64652;HTU21D;51062;45.120;37.660;2023-04-03T10:04:40;18.97;51.27
64652;HTU21D;51062;45.120;37.660;2023-04-03T10:07:30;19.06;51.28
64652;HTU21D;51062;45.120;37.660;2023-04-03T10:09:58;19.06;51.19
64652;HTU21D;51062;45.120;37.660;2023-04-03T10:12:25;19.02;51.12
64652;HTU21D;51062;45.120;37.660;2023-04-03T10:14:56;18.91;51.24
64652;HTU21D;51062;45.120;37.660;2023-04-03T10:20:45;18.73;51.43
64652;HTU21D;51062;45.120;37.660;2023-04-03T10:23:17;18.80;51.56
64652;HTU21D;51062;45.120;37.660;2023-04-03T10:31:17;19.06;51.16
64652;HTU21D;51062;45.120;37.660;2023-04-03T10:34:07;19.03;51.17
64652;HTU21D;51062;45.120;37.660;2023-04-03T10:39:16;18.93;51.29
64652;HTU21D;51062;45.120;37.660;2023-04-03T10:41:53;18.83;51.41
64652;HTU21D;51062;45.120;37.660;2023-04-03T10:44:47;18.76;51.50
64652;HTU21D;51062;45.120;37.660;2023-04-03T10:52:22;18.52;51.75
64652;HTU21D;51062;45.120;37.660;2023-04-03T10:57:58;18.52;52.02
64652;HTU21D;51062;45.120;37.660;2023-04-03T11:02:57;18.51;52.01
64652;HTU21D;51062;45.120;37.660;2023-04-03T11:05:40;18.52;52.06
64652;HTU21D;51062;45.120;37.660;2023-04-03T11:11:38;18.40;52.15
64652;HTU21D;51062;45.120;37.660;2023-04-03T11:16:46;18.41;52.24
64652;HTU21D;51062;45.120;37.660;2023-04-03T11:19:22;18.43;52.31
64652;HTU21D;51062;45.120;37.660;2023-04-03T11:21:57;18.48;52.36
64652;HTU21D;51062;45.120;37.660;2023-04-03T11:24:28;18.49;52.40
64652;HTU21D;51062;45.120;37.660;2023-04-03T11:26:58;18.49;52.41
64652;HTU21D;51062;45.120;37.660;2023-04-03T11:29:31;18.46;52.42
64652;HTU21D;51062;45.120;37.660;2023-04-03T11:34:44;18.42;52.51
64652;HTU21D;51062;45.120;37.660;2023-04-03T11:37:41;18.38;52.61
64652;HTU21D;51062;45.120;37.660;2023-04-03T11:45:33;18.14;52.77
64652;HTU21D;51062;45.120;37.660;2023-04-03T12:13:37;17.49;53.39
64652;HTU21D;51062;45.120;37.660;2023-04-03T12:19:34;17.43;53.49
64652;HTU21D;51062;45.120;37.660;2023-04-03T12:24:35;17.40;53.50
64652;HTU21D;51062;45.120;37.660;2023-04-03T12:27:27;17.36;53.50
64652;HTU21D;51062;45.120;37.660;2023-04-03T12:41:04;17.26;53.65
64652;HTU21D;51062;45.120;37.660;2023-04-03T12:46:47;17.29;53.63
64652;HTU21D;51062;45.120;37.660;2023-04-03T12:51:46;17.22;53.65
64652;HTU21D;51062;45.120;37.660;2023-04-03T12:54:29;17.22;53.66
64652;HTU21D;51062;45.120;37.660;2023-04-03T12:57:20;17.17;53.71
64652;HTU21D;51062;45.120;37.660;2023-04-03T12:59:46;17.13;53.78
64652;HTU21D;51062;45.120;37.660;2023-04-03T13:02:24;17.13;53.85
64652;HTU21D;51062;45.120;37.660;2023-04-03T13:04:57;17.11;53.88
64652;HTU21D;51062;45.120;37.660;2023-04-03T13:07:32;17.10;53.91
64652;HTU21D;51062;45.120;37.660;2023-04-03T13:10:02;17.06;53.91
64652;HTU21D;51062;45.120;37.660;2023-04-03T13:12:30;17.05;53.98
64652;HTU21D;51062;45.120;37.660;2023-04-03T13:15:00;17.04;53.98
64652;HTU21D;51062;45.120;37.660;2023-04-03T13:17:28;17.03;53.97
64652;HTU21D;51062;45.120;37.660;2023-04-03T13:19:55;17.01;54.04
64652;HTU21D;51062;45.120;37.660;2023-04-03T13:24:54;17.04;54.05
64652;HTU21D;51062;45.120;37.660;2023-04-03T13:27:21;17.04;54.01
64652;HTU21D;51062;45.120;37.660;2023-04-03T13:29:52;17.02;54.01
64652;HTU21D;51062;45.120;37.660;2023-04-03T13:32:23;16.94;54.06
64652;HTU21D;51062;45.120;37.660;2023-04-03T13:34:50;16.91;54.09
64652;HTU21D;51062;45.120;37.660;2023-04-03T13:37:30;16.85;54.16
64652;HTU21D;51062;45.120;37.660;2023-04-03T13:42:35;16.71;54.24
64652;HTU21D;51062;45.120;37.660;2023-04-03T13:45:27;16.64;54.32
64652;HTU21D;51062;45.120;37.660;2023-04-03T13:48:14;16.57;54.34
64652;HTU21D;51062;45.120;37.660;2023-04-03T13:51:00;16.46;54.39
64652;HTU21D;51062;45.120;37.660;2023-04-03T13:53:29;16.40;54.42
64652;HTU21D;51062;45.120;37.660;2023-04-03T13:56:00;16.32;54.50
64652;HTU21D;51062;45.120;37.660;2023-04-03T13:58:28;16.24;54.59
64652;HTU21D;51062;45.120;37.660;2023-04-03T14:01:00;16.13;54.65
64652;HTU21D;51062;45.120;37.660;2023-04-03T14:06:07;15.95;54.83
64652;HTU21D;51062;45.120;37.660;2023-04-03T14:08:34;15.91;54.94
64652;HTU21D;51062;45.120;37.660;2023-04-03T14:11:00;15.91;54.97
64652;HTU21D;51062;45.120;37.660;2023-04-03T14:13:26;15.87;54.94
64652;HTU21D;51062;45.120;37.660;2023-04-03T14:15:55;15.78;55.07
64652;HTU21D;51062;45.120;37.660;2023-04-03T14:18:21;15.71;55.17
64652;HTU21D;51062;45.120;37.660;2023-04-03T14:20:48;15.67;55.29
64652;HTU21D;51062;45.120;37.660;2023-04-03T14:23:14;15.63;55.33
64652;HTU21D;51062;45.120;37.660;2023-04-03T14:25:41;15.58;55.36
64652;HTU21D;51062;45.120;37.660;2023-04-03T14:28:19;15.49;55.44
64652;HTU21D;51062;45.120;37.660;2023-04-03T14:30:49;15.41;55.50
64652;HTU21D;51062;45.120;37.660;2023-04-03T14:33:18;15.36;55.55
64652;HTU21D;51062;45.120;37.660;2023-04-03T14:35:45;15.30;55.60
64652;HTU21D;51062;45.120;37.660;2023-04-03T14:38:25;15.22;55.71
64652;HTU21D;51062;45.120;37.660;2023-04-03T14:40:52;15.13;55.78
64652;HTU21D;51062;45.120;37.660;2023-04-03T14:43:19;15.04;55.89
64652;HTU21D;51062;45.120;37.660;2023-04-03T14:45:47;14.97;55.97
64652;HTU21D;51062;45.120;37.660;2023-04-03T14:48:22;14.91;56.08
64652;HTU21D;51062;45.120;37.660;2023-04-03T14:50:49;14.85;56.12
64652;HTU21D;51062;45.120;37.660;2023-04-03T14:53:16;14.81;56.19
64652;HTU21D;51062;45.120;37.660;2023-04-03T14:55:45;14.74;56.30
64652;HTU21D;51062;45.120;37.660;2023-04-03T14:58:16;14.68;56.39
64652;HTU21D;51062;45.120;37.660;2023-04-03T15:00:43;14.64;56.48
64652;HTU21D;51062;45.120;37.660;2023-04-03T15:03:17;14.56;56.65
64652;HTU21D;51062;45.120;37.660;2023-04-03T15:05:44;14.48;56.76
64652;HTU21D;51062;45.120;37.660;2023-04-03T15:08:26;14.41;56.92
64652;HTU21D;51062;45.120;37.660;2023-04-03T15:10:56;14.34;57.02
64652;HTU21D;51062;45.120;37.660;2023-04-03T15:13:23;14.27;57.06
64652;HTU21D;51062;45.120;37.660;2023-04-03T15:15:50;14.22;57.14
64652;HTU21D;51062;45.120;37.660;2023-04-03T15:18:27;14.15;57.26
64652;HTU21D;51062;45.120;37.660;2023-04-03T15:20:55;14.08;57.38
64652;HTU21D;51062;45.120;37.660;2023-04-03T15:23:21;14.00;57.55
64652;HTU21D;51062;45.120;37.660;2023-04-03T15:25:52;13.91;57.70
64652;HTU21D;51062;45.120;37.660;2023-04-03T15:30:48;13.74;58.09
64652;HTU21D;51062;45.120;37.660;2023-04-03T15:33:15;13.68;58.16
64652;HTU21D;51062;45.120;37.660;2023-04-03T15:35:42;13.62;58.22
64652;HTU21D;51062;45.120;37.660;2023-04-03T15:38:08;13.56;58.32
64652;HTU21D;51062;45.120;37.660;2023-04-03T15:40:35;13.52;58.39
64652;HTU21D;51062;45.120;37.660;2023-04-03T15:43:01;13.47;58.47
64652;HTU21D;51062;45.120;37.660;2023-04-03T15:45:30;13.38;58.54
64652;HTU21D;51062;45.120;37.660;2023-04-03T15:47:57;13.34;58.54
64652;HTU21D;51062;45.120;37.660;2023-04-03T15:50:23;13.29;58.61
64652;HTU21D;51062;45.120;37.660;2023-04-03T15:52:50;13.23;58.83
64652;HTU21D;51062;45.120;37.660;2023-04-03T15:55:27;13.18;58.88
64652;HTU21D;51062;45.120;37.660;2023-04-03T15:57:53;13.12;58.95
64652;HTU21D;51062;45.120;37.660;2023-04-03T16:00:20;13.08;59.00
64652;HTU21D;51062;45.120;37.660;2023-04-03T16:02:49;13.05;59.01
64652;HTU21D;51062;45.120;37.660;2023-04-03T16:05:16;13.00;59.12
64652;HTU21D;51062;45.120;37.660;2023-04-03T16:07:43;12.95;59.16
64652;HTU21D;51062;45.120;37.660;2023-04-03T16:10:11;12.92;59.23
64652;HTU21D;51062;45.120;37.660;2023-04-03T16:12:38;12.88;59.39
64652;HTU21D;51062;45.120;37.660;2023-04-03T16:15:05;12.85;59.47
64652;HTU21D;51062;45.120;37.660;2023-04-03T16:17:32;12.81;59.51
64652;HTU21D;51062;45.120;37.660;2023-04-03T16:19:59;12.78;59.50
64652;HTU21D;51062;45.120;37.660;2023-04-03T16:22:27;12.75;59.57
64652;HTU21D;51062;45.120;37.660;2023-04-03T16:24:54;12.73;59.70
64652;HTU21D;51062;45.120;37.660;2023-04-03T16:27:21;12.71;59.72
64652;HTU21D;51062;45.120;37.660;2023-04-03T16:29:47;12.67;59.86
64652;HTU21D;51062;45.120;37.660;2023-04-03T16:32:14;12.64;60.00
64652;HTU21D;51062;45.120;37.660;2023-04-03T16:34:40;12.62;60.01
64652;HTU21D;51062;45.120;37.660;2023-04-03T16:37:06;12.58;60.02
64652;HTU21D;51062;45.120;37.660;2023-04-03T16:39:35;12.57;60.24
64652;HTU21D;51062;45.120;37.660;2023-04-03T16:42:01;12.52;60.22
64652;HTU21D;51062;45.120;37.660;2023-04-03T16:44:27;12.50;60.34
64652;HTU21D;51062;45.120;37.660;2023-04-03T16:46:53;12.48;60.44
64652;HTU21D;51062;45.120;37.660;2023-04-03T16:49:19;12.46;60.48
64652;HTU21D;51062;45.120;37.660;2023-04-03T16:51:45;12.45;60.56
64652;HTU21D;51062;45.120;37.660;2023-04-03T16:54:12;12.43;60.64
64652;HTU21D;51062;45.120;37.660;2023-04-03T16:56:39;12.41;60.69
64652;HTU21D;51062;45.120;37.660;2023-04-03T16:59:06;12.40;60.91
64652;HTU21D;51062;45.120;37.660;2023-04-03T17:01:32;12.38;61.02
64652;HTU21D;51062;45.120;37.660;2023-04-03T17:03:59;12.37;61.07
64652;HTU21D;51062;45.120;37.660;2023-04-03T17:06:25;12.35;61.16
64652;HTU21D;51062;45.120;37.660;2023-04-03T17:08:51;12.34;61.27
64652;HTU21D;51062;45.120;37.660;2023-04-03T17:11:28;12.33;61.32